Abu Simbel Airport

Airport
ICAO code: 
HEBL
IATA Code: 
ABS
Summary
ICAO Region: 
AFI
Territory: 
Location: 
Abu Simbel, Aswan
Serving: 
Abu Simbel
Elevation: 
616 ft
Coordinates: 
Aerial View: 
22° 22' 33.431" N, 31° 36' 42.199" E
Metar
Observation
HEBL 071700Z 31005KT CAVOK 22/01 Q1016 NOSIG
Station
ABU SIMBEL (RUIN
Date/Time
2021-12-07 17:00:00
Wind direction
310°
Wind speed
05 kts
Lowest cloud amount
clouds and visibility OK
Temperature
22°C
Dew point
1°C
Humidity
24%
QNH
1016 hPa
Weather condition
n/a

Runways

Designator Length Width Surface Rops
15/33 3000 45 ASP Yes/Yes
Airport map: 
Aerial View: 

SKYbrary Partners:

Safety knowledge contributed by: